createdAt,value
2022-11-21T00:00:57.011Z,49.45
2022-11-21T00:03:05.054Z,50.95
2022-11-21T00:05:13.788Z,49.83
2022-11-21T00:07:19.555Z,50.35
2022-11-21T00:09:30.055Z,53.31
2022-11-21T00:11:35.822Z,51.71
2022-11-21T00:13:42.628Z,50.93
2022-11-21T00:15:50.367Z,49.31
2022-11-21T00:18:14.416Z,52.77
2022-11-21T00:20:28.906Z,53.83
2022-11-21T00:22:41.314Z,56.50
2022-11-21T00:24:50.494Z,56.14
2022-11-21T00:26:58.906Z,55.59
2022-11-21T00:29:24.971Z,55.85
2022-11-21T00:31:31.538Z,53.12
2022-11-21T00:33:41.640Z,51.74
2022-11-21T00:35:51.024Z,51.50
2022-11-21T00:37:57.043Z,52.02
2022-11-21T00:40:20.031Z,50.54
2022-11-21T00:42:26.696Z,49.70
2022-11-21T00:44:38.805Z,49.87
2022-11-21T00:46:50.796Z,49.04
2022-11-21T00:48:57.722Z,48.95
2022-11-21T00:51:12.597Z,50.31
2022-11-21T00:53:18.653Z,50.95
2022-11-21T00:55:37.451Z,52.63
2022-11-21T00:57:43.406Z,51.91
2022-11-21T00:59:49.201Z,53.41
2022-11-21T01:01:56.221Z,55.09
2022-11-21T01:04:02.693Z,52.97
2022-11-21T01:06:13.776Z,53.78
2022-11-21T01:08:20.483Z,51.98
2022-11-21T01:10:26.195Z,52.52
2022-11-21T01:12:32.102Z,51.18
2022-11-21T01:14:38.860Z,52.27
2022-11-21T01:16:45.371Z,53.14
2022-11-21T01:18:52.471Z,54.33
2022-11-21T01:21:03.236Z,56.81
2022-11-21T01:23:11.799Z,52.79
2022-11-21T01:25:17.853Z,53.14
2022-11-21T01:27:26.108Z,61.33
2022-11-21T01:29:32.168Z,62.88
2022-11-21T01:31:38.637Z,65.81
2022-11-21T01:33:46.622Z,70.27
2022-11-21T01:35:52.374Z,71.19
2022-11-21T01:37:58.195Z,72.53
2022-11-21T01:40:08.643Z,71.50
2022-11-21T01:42:16.785Z,69.27
2022-11-21T01:44:27.297Z,69.18
2022-11-21T01:46:40.977Z,58.08
2022-11-21T01:49:15.974Z,58.13
2022-11-21T01:51:33.348Z,58.46
2022-11-21T01:53:45.463Z,58.74
2022-11-21T01:55:56.671Z,59.07
2022-11-21T01:58:04.763Z,63.40
2022-11-21T02:00:22.183Z,74.53
2022-11-21T02:02:35.970Z,64.78
2022-11-21T02:04:47.512Z,70.82
2022-11-21T02:06:55.405Z,68.72
2022-11-21T02:09:04.545Z,62.01
2022-11-21T02:11:24.883Z,49.77
2022-11-21T02:13:31.533Z,51.64
2022-11-21T02:15:41.602Z,50.78
2022-11-21T02:17:47.481Z,48.69
2022-11-21T02:20:01.075Z,49.95
2022-11-21T02:22:21.557Z,65.82
2022-11-21T02:24:41.457Z,54.05
2022-11-21T02:26:52.588Z,52.39
2022-11-21T02:39:53.048Z,56.90
2022-11-21T02:44:26.069Z,57.91
2022-11-21T02:46:34.504Z,56.65
2022-11-21T02:48:42.081Z,56.49
2022-11-21T02:50:50.653Z,56.26
2022-11-21T02:53:00.093Z,56.71
2022-11-21T02:55:06.126Z,54.24
2022-11-21T02:57:12.049Z,53.71
2022-11-21T02:59:21.389Z,51.54
2022-11-21T03:01:27.329Z,51.03
2022-11-21T03:03:36.568Z,48.86
2022-11-21T03:05:44.316Z,46.09
2022-11-21T03:07:50.632Z,44.22
2022-11-21T03:09:57.353Z,43.20
2022-11-21T03:12:09.946Z,42.86
2022-11-21T03:14:15.907Z,43.35
2022-11-21T03:16:24.537Z,45.52
2022-11-21T03:18:31.309Z,51.50
2022-11-21T03:23:11.423Z,48.88
2022-11-21T03:25:20.929Z,50.65
2022-11-21T03:27:38.985Z,55.00
2022-11-21T03:29:44.795Z,60.96
2022-11-21T03:32:04.171Z,62.31
2022-11-21T03:34:20.234Z,59.98
2022-11-21T03:36:26.162Z,62.50
2022-11-21T03:38:40.895Z,62.94
2022-11-21T03:40:46.600Z,64.26
2022-11-21T03:42:52.291Z,63.37
2022-11-21T03:44:59.044Z,61.74
2022-11-21T03:47:04.810Z,64.67
2022-11-21T03:49:11.807Z,83.17
2022-11-21T03:51:23.698Z,97.71
2022-11-21T03:53:29.442Z,78.22
2022-11-21T03:55:37.860Z,88.96
2022-11-21T03:57:44.639Z,72.31
2022-11-21T03:59:50.489Z,67.63
2022-11-21T04:06:31.579Z,67.28
2022-11-21T04:08:38.367Z,72.38
2022-11-21T04:10:50.298Z,61.28
2022-11-21T04:12:55.998Z,56.46
2022-11-21T04:15:02.862Z,58.79
2022-11-21T04:17:08.784Z,56.10
2022-11-21T04:19:14.840Z,56.96
2022-11-21T04:21:21.612Z,59.20
2022-11-21T04:23:31.544Z,64.33
2022-11-21T04:25:37.758Z,71.14
2022-11-21T04:27:44.378Z,76.81
2022-11-21T04:29:50.239Z,83.21
2022-11-21T04:31:56.134Z,79.34
2022-11-21T04:34:02.867Z,77.25
2022-11-21T04:36:17.015Z,78.20
2022-11-21T07:26:49.542Z,184.41
2022-11-21T07:28:56.719Z,177.29
2022-11-21T07:31:13.164Z,175.65
2022-11-21T07:33:23.786Z,167.41
2022-11-21T07:35:31.965Z,161.23
2022-11-21T07:37:42.470Z,166.62
2022-11-21T07:39:48.227Z,141.63
2022-11-21T07:41:57.336Z,161.67
2022-11-21T07:44:10.054Z,157.10
2022-11-21T07:46:36.327Z,141.67
2022-11-21T07:48:42.838Z,141.29
2022-11-21T07:50:48.464Z,141.60
2022-11-21T07:52:54.110Z,152.11
2022-11-21T07:55:02.537Z,150.44
2022-11-21T07:57:10.963Z,135.04
2022-11-21T07:59:19.416Z,121.24
2022-11-21T08:01:34.145Z,122.46
2022-11-21T08:03:39.933Z,123.76
2022-11-21T08:05:47.727Z,142.94
2022-11-21T08:07:55.483Z,156.23
2022-11-21T08:10:01.206Z,148.96
2022-11-21T08:12:26.485Z,143.35
2022-11-21T08:14:35.201Z,116.97
2022-11-21T08:16:56.487Z,114.02
2022-11-21T08:19:02.840Z,118.92
2022-11-21T16:19:04.260Z,53.60
2022-11-21T16:21:18.189Z,53.58
2022-11-21T16:23:23.909Z,53.23
2022-11-21T16:25:29.544Z,54.17
2022-11-21T16:27:36.338Z,52.80
2022-11-21T16:29:42.032Z,44.92
2022-11-21T16:31:55.313Z,46.80
2022-11-21T16:34:16.158Z,49.13
2022-11-21T16:36:26.747Z,48.33
2022-11-21T16:38:35.488Z,47.34
2022-11-21T16:40:42.435Z,45.89
2022-11-21T16:42:48.047Z,52.35
2022-11-21T16:44:56.153Z,59.46
2022-11-21T16:47:09.294Z,60.85
2022-11-21T16:49:23.766Z,75.80
2022-11-21T16:51:31.686Z,67.17
2022-11-21T16:53:38.171Z,59.15
2022-11-21T16:55:43.952Z,49.18
2022-11-21T16:57:49.830Z,47.93
2022-11-21T16:59:59.087Z,46.78
2022-11-21T17:02:07.831Z,49.50
2022-11-21T17:04:17.164Z,47.40
2022-11-21T17:06:31.262Z,45.09
2022-11-21T17:08:40.803Z,44.95
2022-11-21T17:10:46.585Z,50.60
2022-11-21T17:12:53.040Z,49.42
2022-11-21T17:14:58.678Z,51.46
2022-11-21T17:17:06.385Z,50.64
2022-11-21T17:19:16.456Z,48.68
2022-11-21T17:21:30.376Z,47.64
2022-11-21T17:23:41.925Z,45.76
2022-11-21T17:25:48.465Z,45.34
2022-11-21T17:27:54.249Z,47.94
2022-11-21T17:30:00.037Z,51.65
2022-11-21T17:32:09.384Z,50.08
2022-11-21T17:34:15.661Z,62.36
2022-11-21T17:36:24.720Z,60.73
2022-11-21T17:38:31.401Z,84.41
2022-11-21T17:40:39.777Z,70.03
2022-11-21T17:42:45.482Z,65.44
2022-11-21T17:44:52.075Z,58.14
2022-11-21T17:46:59.465Z,57.97
2022-11-21T17:49:05.474Z,57.64
2022-11-21T17:51:16.753Z,68.70
2022-11-21T17:53:22.576Z,73.69
2022-11-21T17:55:28.238Z,71.94
2022-11-21T17:57:37.330Z,69.32
2022-11-21T17:59:48.910Z,61.52
2022-11-21T18:01:54.725Z,64.50
2022-11-21T18:04:05.751Z,67.12
2022-11-21T18:06:17.748Z,63.44
2022-11-21T18:08:23.528Z,65.87
2022-11-21T18:10:43.375Z,74.87
2022-11-21T18:12:52.121Z,94.52
2022-11-21T18:14:57.800Z,73.47
2022-11-21T18:17:04.423Z,70.32
2022-11-21T18:19:10.666Z,77.59
2022-11-21T18:21:20.124Z,81.87
2022-11-21T18:34:57.566Z,75.36
2022-11-21T18:37:04.439Z,74.63
2022-11-21T18:39:14.806Z,82.71
2022-11-21T18:41:24.689Z,70.61
2022-11-21T18:43:31.423Z,65.26
2022-11-21T18:45:37.313Z,63.24
2022-11-21T18:47:43.852Z,60.56
2022-11-21T18:49:50.634Z,69.85
2022-11-21T18:51:59.810Z,76.16
2022-11-21T18:54:10.623Z,79.53
2022-11-21T18:56:19.176Z,86.44
2022-11-21T18:58:27.300Z,79.68
2022-11-21T19:00:33.258Z,78.04
2022-11-21T19:02:39.989Z,82.78
2022-11-21T19:04:45.941Z,87.34
2022-11-21T19:06:51.906Z,81.00
2022-11-21T19:09:08.520Z,75.79
2022-11-21T19:11:17.842Z,74.46
2022-11-21T19:13:24.048Z,72.64
2022-11-21T19:17:53.953Z,76.59
2022-11-21T19:22:32.125Z,80.40
2022-11-21T19:24:40.688Z,79.38
2022-11-21T19:26:47.169Z,79.17
2022-11-21T19:29:19.376Z,79.28
2022-11-21T19:31:25.247Z,71.87
2022-11-21T19:33:33.517Z,66.42
2022-11-21T19:35:40.989Z,68.32
2022-11-21T19:37:47.275Z,63.98
2022-11-21T19:39:55.781Z,64.68
2022-11-21T19:42:02.635Z,64.12
2022-11-21T19:44:08.890Z,61.85
2022-11-21T19:46:31.314Z,59.85
2022-11-21T19:48:38.275Z,68.82
2022-11-21T19:50:49.956Z,70.84
2022-11-21T19:52:58.304Z,81.69
2022-11-21T19:55:09.710Z,94.31
2022-11-21T19:57:16.068Z,86.13
2022-11-21T19:59:23.110Z,87.06
2022-11-21T20:01:34.074Z,85.26
2022-11-21T20:03:43.935Z,88.13
2022-11-21T20:05:52.342Z,95.40
2022-11-21T20:08:04.930Z,90.24
2022-11-21T20:10:17.927Z,78.76
2022-11-21T20:12:24.460Z,74.52
2022-11-21T20:14:31.678Z,77.48
2022-11-21T20:16:41.543Z,71.49
2022-11-21T20:18:47.881Z,73.14
2022-11-21T20:20:55.303Z,79.94
2022-11-21T20:23:01.739Z,80.87
2022-11-21T20:25:09.368Z,76.26
2022-11-21T20:27:19.052Z,90.96
2022-11-21T20:29:25.348Z,82.97
2022-11-21T20:31:35.291Z,73.68
2022-11-21T20:33:45.685Z,80.13
2022-11-21T20:35:51.783Z,81.64
2022-11-21T20:37:57.998Z,74.59
2022-11-21T20:40:05.275Z,75.00
2022-11-21T20:42:11.487Z,77.37
2022-11-21T20:44:57.059Z,77.01
2022-11-21T20:46:51.658Z,76.78
2022-11-21T20:49:01.275Z,78.58
2022-11-21T20:53:53.156Z,72.48
2022-11-21T20:56:05.573Z,73.85
2022-11-21T20:58:12.559Z,82.72
2022-11-21T21:00:23.077Z,88.86
2022-11-21T21:02:29.105Z,87.09
2022-11-21T21:04:35.274Z,84.25
2022-11-21T21:06:43.737Z,94.28
2022-11-21T21:08:51.429Z,94.64
2022-11-21T21:11:16.556Z,83.64
2022-11-21T21:13:33.753Z,77.25
2022-11-21T21:15:43.041Z,76.44
2022-11-21T21:17:51.474Z,78.01
2022-11-21T21:19:58.758Z,79.19
2022-11-21T21:22:05.217Z,89.90
2022-11-21T21:24:15.467Z,121.71
2022-11-21T21:26:26.421Z,100.68
2022-11-21T21:28:33.915Z,98.89
2022-11-21T21:30:45.329Z,108.94
2022-11-21T21:32:52.295Z,118.96
2022-11-21T21:34:59.366Z,132.93
2022-11-21T21:37:06.779Z,117.37
2022-11-21T21:39:15.188Z,121.29
2022-11-21T21:41:21.838Z,118.03
2022-11-21T21:43:27.929Z,122.18
2022-11-21T21:45:35.648Z,118.45
2022-11-21T21:47:44.368Z,122.90
2022-11-21T21:49:50.996Z,125.40
2022-11-21T21:51:58.010Z,108.82
2022-11-21T21:54:04.058Z,108.96
2022-11-21T21:56:11.576Z,121.93
2022-11-21T21:58:18.431Z,208.81
2022-11-21T22:00:24.764Z,162.31
2022-11-21T22:02:30.910Z,166.35
2022-11-21T22:04:40.559Z,172.18
2022-11-21T22:06:46.833Z,160.23
2022-11-21T22:08:54.606Z,142.02
2022-11-21T22:11:07.669Z,124.81
2022-11-21T22:13:14.414Z,131.64
2022-11-21T22:15:20.595Z,135.58
2022-11-21T22:17:28.172Z,132.31
2022-11-21T22:19:34.720Z,123.32
2022-11-21T22:21:43.869Z,138.91
2022-11-21T22:24:17.778Z,137.20
2022-11-21T22:26:19.476Z,137.76
2022-11-21T22:28:25.699Z,143.55
2022-11-21T22:30:32.691Z,141.57
2022-11-21T22:32:39.256Z,137.41
2022-11-21T22:34:45.424Z,132.16
2022-11-21T22:36:55.067Z,129.99
2022-11-21T22:39:01.184Z,128.37
2022-11-21T22:41:10.798Z,127.10
2022-11-21T22:43:17.768Z,135.31
2022-11-21T22:45:24.018Z,144.62
2022-11-21T22:47:30.141Z,138.05
2022-11-21T22:49:37.020Z,134.48
2022-11-21T22:51:43.329Z,125.59
2022-11-21T22:53:53.916Z,116.11
2022-11-21T22:56:03.879Z,120.75
2022-11-21T22:58:10.384Z,120.85
2022-11-21T23:00:19.602Z,134.05
2022-11-21T23:02:26.784Z,140.66
2022-11-21T23:04:35.142Z,116.42
2022-11-21T23:06:41.911Z,111.40
2022-11-21T23:08:53.126Z,117.00
2022-11-21T23:11:06.577Z,120.27
2022-11-21T23:13:12.752Z,142.90
2022-11-21T23:15:20.279Z,145.24
2022-11-21T23:17:26.645Z,141.47
2022-11-21T23:19:32.818Z,143.78
2022-11-21T23:21:39.861Z,131.30
2022-11-21T23:23:46.945Z,125.68
2022-11-21T23:25:56.970Z,124.30
2022-11-21T23:28:03.981Z,107.59
2022-11-21T23:30:12.934Z,122.37
